createdAt,value
2018-06-04T00:00:27.317Z,1010.31
2018-06-04T00:01:27.320Z,1010.31
2018-06-04T00:02:27.333Z,1010.30
2018-06-04T00:03:27.345Z,1010.28
2018-06-04T00:04:27.335Z,1010.29
2018-06-04T00:05:27.349Z,1010.27
2018-06-04T00:06:27.353Z,1010.24
2018-06-04T00:07:27.354Z,1010.28
2018-06-04T00:08:27.361Z,1010.25
2018-06-04T00:09:27.369Z,1010.21
2018-06-04T00:10:27.370Z,1010.23
2018-06-04T00:11:27.373Z,1010.22
2018-06-04T00:12:27.383Z,1010.23
2018-06-04T00:13:27.387Z,1010.22
2018-06-04T00:14:27.391Z,1010.22
2018-06-04T00:15:27.401Z,1010.24
2018-06-04T00:16:27.433Z,1010.22
2018-06-04T00:17:27.421Z,1010.21
2018-06-04T00:18:27.413Z,1010.17
2018-06-04T00:19:27.426Z,1010.16
2018-06-04T00:20:27.420Z,1010.16
2018-06-04T00:21:27.438Z,1010.13
2018-06-04T00:22:27.433Z,1010.13
2018-06-04T00:23:27.444Z,1010.11
2018-06-04T00:24:27.444Z,1010.12
2018-06-04T00:25:27.454Z,1010.08
2018-06-04T00:26:27.457Z,1010.11
2018-06-04T00:27:27.463Z,1010.10
2018-06-04T00:28:27.470Z,1010.05
2018-06-04T00:29:27.470Z,1010.06
2018-06-04T00:30:27.479Z,1010.04
2018-06-04T00:31:27.488Z,1010.01
2018-06-04T00:32:27.485Z,1010.00
2018-06-04T00:33:27.489Z,1010.02
2018-06-04T00:34:27.502Z,1010.03
2018-06-04T00:35:27.507Z,1010.00
2018-06-04T00:36:27.510Z,1010.00
2018-06-04T00:37:27.530Z,1010.03
2018-06-04T00:38:27.523Z,1010.02
2018-06-04T00:39:27.527Z,1010.01
2018-06-04T00:40:27.530Z,1010.00
2018-06-04T00:41:27.534Z,1009.94
2018-06-04T00:42:27.546Z,1009.98
2018-06-04T00:43:27.553Z,1009.93
2018-06-04T00:44:27.546Z,1010.00
2018-06-04T00:45:27.562Z,1009.99
2018-06-04T00:46:27.573Z,1010.00
2018-06-04T00:47:27.581Z,1010.00
2018-06-04T00:48:27.580Z,1009.99
2018-06-04T00:49:27.587Z,1010.01
2018-06-04T00:50:27.591Z,1010.01
2018-06-04T00:51:27.592Z,1009.99
2018-06-04T00:52:27.589Z,1009.97
2018-06-04T00:53:27.600Z,1010.00
2018-06-04T00:54:27.626Z,1010.02
2018-06-04T00:55:27.621Z,1010.01
2018-06-04T00:56:27.616Z,1010.05
2018-06-04T00:57:27.621Z,1009.97
2018-06-04T00:58:27.623Z,1010.00
2018-06-04T00:59:27.634Z,1010.01
2018-06-04T01:00:27.634Z,1010.04
2018-06-04T01:01:27.642Z,1010.05
2018-06-04T01:02:27.642Z,1009.99
2018-06-04T01:03:27.652Z,1010.01
2018-06-04T01:04:27.658Z,1009.99
2018-06-04T01:05:27.656Z,1009.99
2018-06-04T01:06:27.671Z,1009.99
2018-06-04T01:07:27.667Z,1010.04
2018-06-04T01:08:27.682Z,1010.03
2018-06-04T01:09:27.685Z,1010.03
2018-06-04T01:10:27.686Z,1010.08
2018-06-04T01:11:27.694Z,1010.10
2018-06-04T01:12:27.700Z,1010.12
2018-06-04T01:13:27.704Z,1010.10
2018-06-04T01:14:27.709Z,1010.13
2018-06-04T01:15:27.713Z,1010.13
2018-06-04T01:16:27.726Z,1010.13
2018-06-04T01:17:27.725Z,1010.12
2018-06-04T01:18:27.729Z,1010.12
2018-06-04T01:19:27.736Z,1010.14
2018-06-04T01:20:27.736Z,1010.08
2018-06-04T01:21:27.749Z,1010.09
2018-06-04T01:22:27.745Z,1010.11
2018-06-04T01:23:27.758Z,1010.11
2018-06-04T01:24:27.760Z,1010.08
2018-06-04T01:25:27.768Z,1010.06
2018-06-04T01:26:27.773Z,1010.10
2018-06-04T01:27:27.777Z,1010.11
2018-06-04T01:28:27.781Z,1010.11
2018-06-04T01:29:27.778Z,1010.10
2018-06-04T01:30:27.794Z,1010.07
2018-06-04T01:31:27.791Z,1010.10
2018-06-04T01:32:27.804Z,1010.05
2018-06-04T01:33:27.802Z,1010.05
2018-06-04T01:34:27.812Z,1010.07
2018-06-04T01:35:27.819Z,1010.04
2018-06-04T01:36:27.815Z,1010.05
2018-06-04T01:37:27.818Z,1010.02
2018-06-04T01:38:27.834Z,1010.02
2018-06-04T01:39:27.842Z,1010.02
2018-06-04T01:40:27.839Z,1010.00
2018-06-04T01:41:27.844Z,1010.04
2018-06-04T01:42:27.857Z,1010.03
2018-06-04T01:43:27.856Z,1010.05
2018-06-04T01:44:27.871Z,1010.04
2018-06-04T01:45:27.865Z,1010.04
2018-06-04T01:46:27.893Z,1010.02
2018-06-04T01:47:27.878Z,1010.03
2018-06-04T01:48:27.889Z,1010.01
2018-06-04T01:49:27.881Z,1009.99
2018-06-04T01:50:27.902Z,1009.96
2018-06-04T01:51:27.896Z,1009.96
2018-06-04T01:52:27.904Z,1009.92
2018-06-04T01:53:27.910Z,1009.94
2018-06-04T01:54:27.910Z,1009.91
2018-06-04T01:55:27.919Z,1009.91
2018-06-04T01:56:27.921Z,1009.92
2018-06-04T01:57:27.931Z,1009.88
2018-06-04T01:58:27.927Z,1009.88
2018-06-04T01:59:27.952Z,1009.90
2018-06-04T02:00:27.935Z,1009.90
2018-06-04T02:01:27.940Z,1009.87
2018-06-04T02:02:27.955Z,1009.88
2018-06-04T02:03:27.952Z,1009.84
2018-06-04T02:04:27.976Z,1009.83
2018-06-04T02:05:27.964Z,1009.78
2018-06-04T02:06:27.964Z,1009.83
2018-06-04T02:07:27.978Z,1009.80
2018-06-04T02:08:27.976Z,1009.80
2018-06-04T02:09:27.980Z,1009.76
2018-06-04T02:10:27.995Z,1009.81
2018-06-04T02:11:27.992Z,1009.78
2018-06-04T02:12:28.004Z,1009.76
2018-06-04T02:13:28.002Z,1009.75
2018-06-04T02:14:28.036Z,1009.73
2018-06-04T02:15:28.019Z,1009.76
2018-06-04T02:16:28.022Z,1009.71
2018-06-04T02:17:28.033Z,1009.70
2018-06-04T02:18:28.027Z,1009.69
2018-06-04T02:19:28.036Z,1009.72
2018-06-04T02:20:28.042Z,1009.71
2018-06-04T02:21:28.047Z,1009.68
2018-06-04T02:22:28.051Z,1009.68
2018-06-04T02:23:28.052Z,1009.66
2018-06-04T02:24:28.059Z,1009.66
2018-06-04T02:25:28.062Z,1009.65
2018-06-04T02:26:28.064Z,1009.63
2018-06-04T02:27:28.081Z,1009.58
2018-06-04T02:28:28.074Z,1009.58
2018-06-04T02:29:28.090Z,1009.57
2018-06-04T02:30:28.093Z,1009.55
2018-06-04T02:31:28.101Z,1009.55
2018-06-04T02:32:28.099Z,1009.56
2018-06-04T02:33:28.111Z,1009.55
2018-06-04T02:34:28.112Z,1009.58
2018-06-04T02:35:28.117Z,1009.55
2018-06-04T02:36:28.128Z,1009.55
2018-06-04T02:37:28.134Z,1009.53
2018-06-04T02:38:28.133Z,1009.54
2018-06-04T02:39:28.131Z,1009.54
2018-06-04T02:40:28.164Z,1009.51
2018-06-04T02:41:28.147Z,1009.46
2018-06-04T02:42:28.168Z,1009.47
2018-06-04T02:43:28.154Z,1009.46
2018-06-04T02:44:28.157Z,1009.45
2018-06-04T02:45:28.171Z,1009.48
2018-06-04T02:46:28.171Z,1009.46
2018-06-04T02:47:28.207Z,1009.45
2018-06-04T02:48:28.174Z,1009.47
2018-06-04T02:49:28.177Z,1009.47
2018-06-04T02:50:28.187Z,1009.45
2018-06-04T02:51:28.194Z,1009.50
2018-06-04T02:52:28.193Z,1009.48
2018-06-04T02:53:28.200Z,1009.47
2018-06-04T02:54:28.209Z,1009.49
2018-06-04T02:55:28.205Z,1009.48
2018-06-04T02:56:28.220Z,1009.52
2018-06-04T02:57:28.225Z,1009.53
2018-06-04T02:58:28.221Z,1009.53
2018-06-04T02:59:28.228Z,1009.56
2018-06-04T03:00:28.229Z,1009.54
2018-06-04T03:01:28.236Z,1009.54
2018-06-04T03:02:28.247Z,1009.55
2018-06-04T03:03:28.253Z,1009.52
2018-06-04T03:04:28.248Z,1009.53
2018-06-04T03:05:28.253Z,1009.56
2018-06-04T03:06:28.266Z,1009.51
2018-06-04T03:07:28.268Z,1009.53
2018-06-04T03:08:28.270Z,1009.52
2018-06-04T03:09:28.278Z,1009.57
2018-06-04T03:10:28.288Z,1009.55
2018-06-04T03:11:28.285Z,1009.55
2018-06-04T03:12:28.297Z,1009.50
2018-06-04T03:13:28.296Z,1009.51
2018-06-04T03:14:28.310Z,1009.50
2018-06-04T03:15:28.306Z,1009.51
2018-06-04T03:16:28.308Z,1009.46
2018-06-04T03:17:28.319Z,1009.44
2018-06-04T03:18:28.321Z,1009.46
2018-06-04T03:19:28.336Z,1009.42
2018-06-04T03:20:28.328Z,1009.46
2018-06-04T03:21:28.346Z,1009.42
2018-06-04T03:22:28.338Z,1009.46
2018-06-04T03:23:28.348Z,1009.52
2018-06-04T03:24:28.343Z,1009.46
2018-06-04T03:25:28.353Z,1009.50
2018-06-04T03:26:28.358Z,1009.44
2018-06-04T03:27:28.363Z,1009.43
2018-06-04T03:28:28.369Z,1009.46
2018-06-04T03:29:28.368Z,1009.44
2018-06-04T03:30:28.373Z,1009.45
2018-06-04T03:31:28.408Z,1009.44
2018-06-04T03:32:28.381Z,1009.43
2018-06-04T03:33:28.388Z,1009.41
2018-06-04T03:34:28.396Z,1009.44
2018-06-04T03:35:28.397Z,1009.45
2018-06-04T03:36:28.406Z,1009.46
2018-06-04T03:37:28.406Z,1009.45
2018-06-04T03:38:28.419Z,1009.45
2018-06-04T03:39:28.413Z,1009.46
2018-06-04T03:40:28.427Z,1009.45
2018-06-04T03:41:28.425Z,1009.45
2018-06-04T03:42:28.435Z,1009.46
2018-06-04T03:43:28.436Z,1009.50
2018-06-04T03:44:28.441Z,1009.45
2018-06-04T03:45:28.455Z,1009.48
2018-06-04T03:46:28.459Z,1009.43
2018-06-04T03:47:28.461Z,1009.41
2018-06-04T03:48:28.470Z,1009.46
2018-06-04T03:49:28.470Z,1009.43
2018-06-04T03:50:28.472Z,1009.44
2018-06-04T03:51:28.479Z,1009.47
2018-06-04T03:52:28.480Z,1009.49
2018-06-04T03:53:28.491Z,1009.48
2018-06-04T03:54:28.497Z,1009.46
2018-06-04T03:55:28.500Z,1009.44
2018-06-04T03:56:28.498Z,1009.44
2018-06-04T03:57:28.507Z,1009.44
2018-06-04T03:58:28.526Z,1009.46
2018-06-04T03:59:28.517Z,1009.52
2018-06-04T04:00:28.525Z,1009.53
2018-06-04T04:01:28.530Z,1009.55
2018-06-04T04:02:28.548Z,1009.56
2018-06-04T04:03:28.545Z,1009.55
2018-06-04T04:04:28.538Z,1009.56
2018-06-04T04:05:28.551Z,1009.57
2018-06-04T04:06:28.564Z,1009.53
2018-06-04T04:07:28.562Z,1009.54
2018-06-04T04:08:28.571Z,1009.51
2018-06-04T04:09:28.590Z,1009.50
2018-06-04T04:10:28.590Z,1009.51
2018-06-04T04:11:28.576Z,1009.56
2018-06-04T04:12:28.596Z,1009.58
2018-06-04T04:13:28.599Z,1009.61
2018-06-04T04:14:28.606Z,1009.67
2018-06-04T04:15:28.604Z,1009.64
2018-06-04T04:16:28.611Z,1009.61
2018-06-04T04:17:28.610Z,1009.63
2018-06-04T04:18:28.628Z,1009.65
2018-06-04T04:19:28.630Z,1009.64
2018-06-04T04:20:28.632Z,1009.65
2018-06-04T04:21:28.640Z,1009.69
2018-06-04T04:22:28.647Z,1009.70
2018-06-04T04:23:28.649Z,1009.74
2018-06-04T04:24:28.681Z,1009.74
2018-06-04T04:25:28.671Z,1009.77
2018-06-04T04:26:28.670Z,1009.78
2018-06-04T04:27:28.681Z,1009.77
2018-06-04T04:28:28.691Z,1009.70
2018-06-04T04:29:28.700Z,1009.61
2018-06-04T04:30:28.706Z,1009.51
2018-06-04T04:31:28.721Z,1009.53
2018-06-04T04:32:29.708Z,1009.50
2018-06-04T04:33:28.728Z,1009.47
2018-06-04T04:34:28.746Z,1009.44
2018-06-04T04:35:28.755Z,1009.43
2018-06-04T04:36:28.747Z,1009.42
2018-06-04T04:37:28.760Z,1009.47
2018-06-04T04:38:28.781Z,1009.45
2018-06-04T04:39:28.789Z,1009.38
2018-06-04T04:40:28.779Z,1009.43
2018-06-04T04:41:28.784Z,1009.41
2018-06-04T04:42:28.795Z,1009.41
2018-06-04T04:43:28.798Z,1009.40
2018-06-04T04:44:28.818Z,1009.38
2018-06-04T04:45:28.822Z,1009.38
2018-06-04T04:46:28.826Z,1009.40
2018-06-04T04:47:28.828Z,1009.41
2018-06-04T04:48:28.842Z,1009.42
2018-06-04T04:49:28.843Z,1009.43
2018-06-04T04:50:28.862Z,1009.47
2018-06-04T04:51:28.861Z,1009.43
2018-06-04T04:52:28.868Z,1009.46
2018-06-04T04:53:28.871Z,1009.45
2018-06-04T04:54:28.891Z,1009.46
2018-06-04T04:55:28.890Z,1009.46
2018-06-04T04:56:28.886Z,1009.45
2018-06-04T04:57:28.927Z,1009.45
2018-06-04T04:58:28.907Z,1009.49
2018-06-04T04:59:28.908Z,1009.46
2018-06-04T05:00:28.931Z,1009.42
2018-06-04T05:01:29.723Z,1009.43
2018-06-04T05:02:28.931Z,1009.42
2018-06-04T05:03:28.949Z,1009.43
2018-06-04T05:04:28.988Z,1009.42
2018-06-04T05:05:28.961Z,1009.41
2018-06-04T05:06:28.969Z,1009.42
2018-06-04T05:07:28.967Z,1009.44
2018-06-04T05:08:28.970Z,1009.44
2018-06-04T05:09:28.974Z,1009.46
2018-06-04T05:10:28.995Z,1009.52
2018-06-04T05:11:28.989Z,1009.65
2018-06-04T05:12:29.004Z,1009.73
2018-06-04T05:13:29.003Z,1009.78
2018-06-04T05:14:29.014Z,1009.79
2018-06-04T05:15:29.017Z,1009.79
2018-06-04T05:16:29.043Z,1009.76
2018-06-04T05:17:29.054Z,1009.77
2018-06-04T05:18:29.143Z,1009.78
2018-06-04T05:19:29.093Z,1009.79
2018-06-04T05:20:29.933Z,1009.83
2018-06-04T05:21:31.103Z,1009.86
2018-06-04T05:22:30.317Z,1009.85
2018-06-04T05:23:31.238Z,1009.87
2018-06-04T05:24:30.784Z,1009.85
2018-06-04T05:25:29.817Z,1009.90
2018-06-04T05:26:30.649Z,1009.92
2018-06-04T05:27:30.119Z,1009.86
2018-06-04T05:28:31.315Z,1009.88
2018-06-04T05:29:31.640Z,1009.93
2018-06-04T05:30:30.780Z,1009.97
2018-06-04T05:31:30.882Z,1009.96
2018-06-04T05:32:30.120Z,1010.00
2018-06-04T05:33:29.883Z,1010.01
2018-06-04T05:34:31.222Z,1010.01
2018-06-04T05:35:31.123Z,1010.03
2018-06-04T05:36:31.279Z,1010.01
2018-06-04T05:37:31.759Z,1010.03
2018-06-04T05:38:30.487Z,1010.05
2018-06-04T05:39:32.372Z,1010.06
2018-06-04T05:40:30.161Z,1010.04
2018-06-04T05:41:31.052Z,1010.02
2018-06-04T05:42:31.190Z,1010.05
2018-06-04T05:43:29.632Z,1010.07
2018-06-04T05:44:31.232Z,1010.11
2018-06-04T05:45:31.647Z,1010.13
2018-06-04T05:46:30.359Z,1010.11
2018-06-04T05:47:31.908Z,1010.14
2018-06-04T05:48:31.806Z,1010.11
2018-06-04T05:49:32.677Z,1010.11
2018-06-04T05:50:31.812Z,1010.12
2018-06-04T05:51:31.817Z,1010.13
2018-06-04T05:52:29.435Z,1010.10
2018-06-04T05:53:29.445Z,1010.08
2018-06-04T05:54:29.462Z,1010.10
2018-06-04T05:55:29.475Z,1010.12
2018-06-04T05:56:29.494Z,1010.10
2018-06-04T05:57:29.510Z,1010.13
2018-06-04T05:58:29.516Z,1010.07
2018-06-04T05:59:29.542Z,1010.06
2018-06-04T06:00:29.547Z,1010.05
2018-06-04T06:01:29.561Z,1010.07
2018-06-04T06:02:29.588Z,1010.06
2018-06-04T06:03:29.595Z,1010.10
2018-06-04T06:04:29.617Z,1010.03
2018-06-04T06:05:29.636Z,1010.00
2018-06-04T06:06:29.639Z,1010.01
2018-06-04T06:07:29.665Z,1010.03
2018-06-04T06:08:29.670Z,1010.04
2018-06-04T06:09:29.699Z,1010.03
2018-06-04T06:10:29.732Z,1010.04
2018-06-04T06:11:29.725Z,1010.04
2018-06-04T06:12:29.740Z,1010.01
2018-06-04T06:13:29.762Z,1010.03
2018-06-04T06:14:29.845Z,1010.02
2018-06-04T06:15:29.792Z,1010.04
2018-06-04T06:16:29.806Z,1010.09
2018-06-04T06:17:29.829Z,1010.08
2018-06-04T06:18:29.836Z,1010.06
2018-06-04T06:19:29.864Z,1010.07
2018-06-04T06:20:29.874Z,1010.07
2018-06-04T06:21:29.888Z,1010.11
2018-06-04T06:22:29.914Z,1010.11
2018-06-04T06:23:29.928Z,1010.07
2018-06-04T06:24:29.949Z,1010.09
2018-06-04T06:25:30.021Z,1010.10
2018-06-04T06:26:29.982Z,1010.06
2018-06-04T06:27:30.001Z,1010.05
2018-06-04T06:28:30.011Z,1010.08
2018-06-04T06:29:30.030Z,1010.10
2018-06-04T06:30:30.055Z,1010.07
2018-06-04T06:31:30.073Z,1010.12
2018-06-04T06:32:30.097Z,1010.08
2018-06-04T06:33:30.114Z,1010.11
2018-06-04T06:34:30.289Z,1010.13
2018-06-04T06:35:30.142Z,1010.11
2018-06-04T06:36:30.711Z,1010.12
2018-06-04T06:37:30.257Z,1010.07
2018-06-04T06:38:30.198Z,1010.09
2018-06-04T06:39:30.215Z,1010.14
2018-06-04T06:40:30.228Z,1010.10
2018-06-04T06:41:30.253Z,1010.12
2018-06-04T06:42:30.275Z,1010.15
2018-06-04T06:43:30.293Z,1010.15
2018-06-04T06:44:30.308Z,1010.18
2018-06-04T06:45:30.328Z,1010.17
2018-06-04T06:46:30.360Z,1010.13
2018-06-04T06:47:30.365Z,1010.12
2018-06-04T06:48:30.396Z,1010.11
2018-06-04T06:49:30.421Z,1010.11
2018-06-04T06:50:30.418Z,1010.08
2018-06-04T06:51:30.445Z,1010.07
2018-06-04T06:52:30.464Z,1010.11
2018-06-04T06:53:30.481Z,1010.12
2018-06-04T06:54:30.498Z,1010.17
2018-06-04T06:55:30.575Z,1010.15
2018-06-04T06:56:30.539Z,1010.09
2018-06-04T06:57:30.633Z,1010.10
2018-06-04T06:58:30.573Z,1010.10
2018-06-04T06:59:30.605Z,1010.06
2018-06-04T07:00:30.617Z,1010.10
2018-06-04T07:01:30.642Z,1010.12
2018-06-04T07:02:30.865Z,1010.12
2018-06-04T07:03:30.680Z,1010.10
2018-06-04T07:04:30.715Z,1010.14
2018-06-04T07:05:30.719Z,1010.15
2018-06-04T07:06:30.773Z,1010.17
2018-06-04T07:07:30.770Z,1010.20
2018-06-04T07:08:30.786Z,1010.21
2018-06-04T07:09:30.804Z,1010.22
2018-06-04T07:10:30.815Z,1010.17
2018-06-04T07:11:30.842Z,1010.18
2018-06-04T07:12:30.859Z,1010.19
2018-06-04T07:13:30.879Z,1010.24
2018-06-04T07:14:30.952Z,1010.24
2018-06-04T07:15:31.731Z,1010.23
2018-06-04T07:16:30.944Z,1010.23
2018-06-04T07:17:30.962Z,1010.28
2018-06-04T07:18:30.995Z,1010.23
2018-06-04T07:19:31.693Z,1010.21
2018-06-04T07:20:31.046Z,1010.26
2018-06-04T07:21:31.135Z,1010.29
2018-06-04T07:22:31.074Z,1010.30
2018-06-04T07:23:31.093Z,1010.29
2018-06-04T07:24:31.114Z,1010.34
2018-06-04T07:25:31.138Z,1010.32
2018-06-04T07:26:31.169Z,1010.28
2018-06-04T07:27:31.177Z,1010.31
2018-06-04T07:28:31.202Z,1010.35
2018-06-04T07:29:31.228Z,1010.31
2018-06-04T07:30:31.239Z,1010.29
2018-06-04T07:31:31.270Z,1010.31
2018-06-04T07:32:31.282Z,1010.31
2018-06-04T07:33:31.326Z,1010.31
2018-06-04T07:34:31.332Z,1010.33
2018-06-04T07:35:31.360Z,1010.33
2018-06-04T07:36:31.453Z,1010.33
2018-06-04T07:37:31.461Z,1010.37
2018-06-04T07:39:31.504Z,1010.35
2018-06-04T07:40:31.541Z,1010.35
2018-06-04T07:41:31.575Z,1010.39
2018-06-04T07:42:31.508Z,1010.34
2018-06-04T07:43:32.243Z,1010.38
2018-06-04T07:44:31.610Z,1010.39
2018-06-04T07:45:31.585Z,1010.44
2018-06-04T07:46:31.602Z,1010.43
2018-06-04T07:47:31.622Z,1010.47
2018-06-04T07:48:31.641Z,1010.49
2018-06-04T07:49:31.659Z,1010.43
2018-06-04T07:50:32.424Z,1010.46
2018-06-04T07:51:31.711Z,1010.43
2018-06-04T07:52:31.733Z,1010.40
2018-06-04T07:53:31.760Z,1010.45
2018-06-04T07:54:31.779Z,1010.42
2018-06-04T07:55:31.808Z,1010.44
2018-06-04T07:56:31.824Z,1010.47
2018-06-04T07:57:31.866Z,1010.43
2018-06-04T07:58:31.871Z,1010.44
2018-06-04T07:59:31.891Z,1010.38
2018-06-04T08:00:31.924Z,1010.40
2018-06-04T08:01:31.946Z,1010.39
2018-06-04T08:02:31.966Z,1010.45
2018-06-04T08:03:31.996Z,1010.42
2018-06-04T08:04:32.010Z,1010.39
2018-06-04T08:05:32.042Z,1010.34
2018-06-04T08:06:32.070Z,1010.34
2018-06-04T08:07:32.090Z,1010.39
2018-06-04T08:08:32.105Z,1010.38
2018-06-04T08:09:32.132Z,1010.38
2018-06-04T08:10:32.152Z,1010.37
2018-06-04T08:11:32.180Z,1010.32
2018-06-04T08:12:32.203Z,1010.35
2018-06-04T08:13:32.224Z,1010.29
2018-06-04T08:14:32.248Z,1010.29
2018-06-04T08:15:32.274Z,1010.25
2018-06-04T08:16:32.299Z,1010.28
2018-06-04T08:17:32.318Z,1010.28
2018-06-04T08:18:32.353Z,1010.26
2018-06-04T08:19:32.415Z,1010.24
2018-06-04T08:20:32.397Z,1010.24
2018-06-04T08:21:33.255Z,1010.19
2018-06-04T08:22:32.444Z,1010.21
2018-06-04T08:23:32.475Z,1010.24
2018-06-04T08:24:32.491Z,1010.32
2018-06-04T08:25:32.524Z,1010.29
2018-06-04T08:26:32.539Z,1010.30
2018-06-04T08:27:32.572Z,1010.28
2018-06-04T08:28:32.609Z,1010.31
2018-06-04T08:29:32.612Z,1010.39
2018-06-04T08:30:32.639Z,1010.37
2018-06-04T08:31:32.755Z,1010.39
2018-06-04T08:32:32.918Z,1010.33
2018-06-04T08:33:32.716Z,1010.31
2018-06-04T08:34:32.846Z,1010.29
2018-06-04T08:35:32.757Z,1010.34
2018-06-04T08:36:32.782Z,1010.36
2018-06-04T08:37:32.807Z,1010.42
2018-06-04T08:39:32.893Z,1010.36
2018-06-04T08:42:15.053Z,1010.43
